Time;durP1;ratioP1;P1;durP2;ratioP2;P2;SDS_P1;SDS_P2;PMS_P1;PMS_P2;Temp;Humidity;BMP_temperature;BMP_pressure;BME280_temperature;BME280_humidity;BME280_pressure;Samples;Min_cycle;Max_cycle;Signal;HPM_P1;HPM_P2
2023/04/24 00:02:23;;;;;;;11.30;7.80;;;;;;;10.89;56.56;100447.36;104341;1265;67589;-45
2023/04/24 00:04:51;;;;;;;11.60;8.00;;;;;;;10.79;56.76;100449.86;104184;1270;59759;-46
2023/04/24 00:07:19;;;;;;;10.30;7.20;;;;;;;10.73;56.87;100453.49;107171;1266;59120;-46
2023/04/24 00:09:46;;;;;;;10.70;7.40;;;;;;;10.71;56.95;100449.83;107728;1266;65678;-46
2023/04/24 00:12:13;;;;;;;10.50;7.50;;;;;;;10.71;56.89;100446.99;107649;1266;65239;-46
2023/04/24 00:14:40;;;;;;;11.00;7.90;;;;;;;10.70;56.84;100448.50;107675;1265;65429;-46
2023/04/24 00:17:07;;;;;;;10.30;7.90;;;;;;;10.66;56.87;100451.80;104962;1269;59736;-46
2023/04/24 00:19:34;;;;;;;11.20;8.50;;;;;;;10.59;56.88;100451.59;104308;1268;59734;-47
2023/04/24 00:22:02;;;;;;;11.60;8.40;;;;;;;10.52;56.83;100450.10;104250;1267;68899;-46
2023/04/24 00:24:29;;;;;;;12.60;9.40;;;;;;;10.43;57.03;100451.84;107666;1265;62588;-46
2023/04/24 00:26:56;;;;;;;11.50;8.60;;;;;;;10.35;57.13;100452.85;107649;1264;68222;-46
2023/04/24 00:29:23;;;;;;;13.00;9.60;;;;;;;10.29;57.30;100450.63;107512;1271;60542;-46
2023/04/24 00:31:50;;;;;;;12.90;9.10;;;;;;;10.25;57.34;100454.08;107677;1266;59486;-47
2023/04/24 00:34:18;;;;;;;11.60;8.60;;;;;;;10.18;57.75;100453.17;107766;1265;67331;-46
2023/04/24 00:36:46;;;;;;;13.00;8.20;;;;;;;10.13;58.05;100453.05;107702;1265;62428;-47
2023/04/24 00:39:12;;;;;;;13.20;9.00;;;;;;;10.09;58.50;100450.20;107535;1266;66159;-47
2023/04/24 00:41:39;;;;;;;13.10;8.80;;;;;;;10.11;58.65;100448.86;107766;1266;59722;-46
2023/04/24 00:44:07;;;;;;;12.70;9.20;;;;;;;10.17;58.60;100453.63;107658;1266;58835;-46
2023/04/24 00:46:34;;;;;;;12.40;8.60;;;;;;;10.25;58.62;100455.11;107592;1265;65760;-45
2023/04/24 00:49:01;;;;;;;12.00;9.30;;;;;;;10.32;58.45;100454.27;107585;1267;65272;-45
2023/04/24 00:51:30;;;;;;;13.50;9.00;;;;;;;10.35;58.50;100452.94;107530;1265;65298;-45
2023/04/24 00:53:57;;;;;;;14.30;9.40;;;;;;;10.40;58.39;100451.02;107559;1266;57781;-45
2023/04/24 00:56:24;;;;;;;13.40;9.70;;;;;;;10.44;58.19;100454.55;105813;1265;59737;-45
2023/04/24 00:58:51;;;;;;;13.50;9.70;;;;;;;10.45;58.11;100453.81;107646;1265;69136;-45
2023/04/24 01:01:22;;;;;;;11.20;8.90;;;;;;;10.43;58.18;100456.41;107565;1265;63116;-46
2023/04/24 01:03:50;;;;;;;13.30;9.70;;;;;;;10.41;58.23;100450.89;107599;1267;68662;-45
2023/04/24 01:06:18;;;;;;;13.60;9.30;;;;;;;10.41;58.13;100448.30;107648;1266;58689;-45
2023/04/24 01:08:45;;;;;;;14.50;9.90;;;;;;;10.37;58.17;100448.23;107635;1266;58453;-45
2023/04/24 01:11:12;;;;;;;13.80;10.00;;;;;;;10.33;58.31;100448.90;107276;1266;66397;-45
2023/04/24 01:13:39;;;;;;;11.60;9.20;;;;;;;10.30;58.26;100446.34;107563;1266;63576;-47
2023/04/24 01:16:06;;;;;;;13.80;10.10;;;;;;;10.26;58.37;100447.86;107581;1266;66242;-45
2023/04/24 01:18:33;;;;;;;16.40;9.00;;;;;;;10.25;58.39;100444.26;107061;1266;59734;-46
2023/04/24 01:21:01;;;;;;;10.70;8.50;;;;;;;10.29;58.28;100442.71;104226;1266;59630;-46
2023/04/24 01:23:30;;;;;;;13.70;8.90;;;;;;;10.32;58.19;100439.20;104161;1266;66258;-46
2023/04/24 01:25:57;;;;;;;13.90;9.20;;;;;;;10.33;58.12;100438.55;104288;1269;64117;-46
2023/04/24 01:28:25;;;;;;;14.60;9.40;;;;;;;10.31;57.95;100437.00;104215;1268;64816;-45
2023/04/24 01:30:52;;;;;;;14.70;9.60;;;;;;;10.27;57.92;100438.67;106294;1266;59551;-46
2023/04/24 01:33:22;;;;;;;12.90;9.90;;;;;;;10.23;57.80;100435.08;107699;1265;57723;-46
2023/04/24 01:35:50;;;;;;;13.60;9.50;;;;;;;10.19;57.95;100435.72;107554;1265;66535;-47
2023/04/24 01:38:17;;;;;;;12.00;9.60;;;;;;;10.15;58.25;100432.70;107547;1267;63033;-45
2023/04/24 01:40:44;;;;;;;16.00;9.50;;;;;;;10.14;58.55;100433.71;107591;1265;66109;-46
2023/04/24 01:43:11;;;;;;;11.10;9.00;;;;;;;10.11;58.74;100433.56;107505;1270;58762;-46
2023/04/24 01:45:38;;;;;;;12.10;8.70;;;;;;;10.10;59.02;100426.88;107514;1267;59530;-46
2023/04/24 01:48:05;;;;;;;11.20;8.50;;;;;;;10.15;59.16;100428.88;107686;1266;65256;-45
2023/04/24 01:50:32;;;;;;;13.50;9.00;;;;;;;10.22;59.15;100425.56;107620;1265;65682;-46
2023/04/24 01:52:59;;;;;;;12.20;8.50;;;;;;;10.30;59.18;100427.55;107731;1265;66554;-46
2023/04/24 01:55:26;;;;;;;13.30;9.10;;;;;;;10.38;59.26;100425.59;108153;1257;59397;-46
2023/04/24 01:57:53;;;;;;;11.60;8.40;;;;;;;10.44;59.14;100423.48;108079;1257;59582;-47
2023/04/24 02:00:20;;;;;;;12.30;9.00;;;;;;;10.50;59.01;100421.33;108062;1263;66321;-46
2023/04/24 02:02:46;;;;;;;12.50;9.20;;;;;;;10.51;58.92;100416.63;108162;1257;63086;-46
2023/04/24 02:05:14;;;;;;;12.50;8.80;;;;;;;10.51;58.81;100415.11;108110;1258;65213;-46
2023/04/24 02:07:41;;;;;;;14.40;9.70;;;;;;;10.49;58.90;100415.97;108206;1257;59287;-46
2023/04/24 02:10:09;;;;;;;14.80;10.00;;;;;;;10.48;59.01;100415.84;108201;1257;58126;-46
2023/04/24 02:12:36;;;;;;;11.40;8.50;;;;;;;10.47;58.98;100412.73;108110;1262;68910;-46
2023/04/24 02:15:03;;;;;;;13.50;10.00;;;;;;;10.46;59.04;100411.27;107557;1259;63846;-46
2023/04/24 02:17:30;;;;;;;11.30;8.20;;;;;;;10.42;58.90;100410.69;104703;1263;66190;-45
2023/04/24 02:19:57;;;;;;;13.40;9.10;;;;;;;10.43;58.87;100413.64;107126;1259;62261;-45
2023/04/24 02:22:24;;;;;;;14.50;9.00;;;;;;;10.48;58.75;100412.86;104877;1259;60985;-45
2023/04/24 02:24:52;;;;;;;11.60;8.70;;;;;;;10.51;58.74;100410.54;104842;1262;67454;-45
2023/04/24 02:27:19;;;;;;;13.70;9.20;;;;;;;10.49;58.80;100408.54;104849;1261;63507;-46
2023/04/24 02:29:45;;;;;;;14.50;9.10;;;;;;;10.48;58.84;100409.20;108204;1257;66362;-46
2023/04/24 02:32:15;;;;;;;14.40;9.70;;;;;;;10.46;58.83;100406.86;108125;1258;60693;-46
2023/04/24 02:34:42;;;;;;;14.40;9.70;;;;;;;10.45;58.75;100408.39;105348;1258;59685;-46
2023/04/24 02:37:11;;;;;;;12.00;9.80;;;;;;;10.40;58.64;100407.13;106464;1262;67183;-46
2023/04/24 02:39:38;;;;;;;13.40;9.90;;;;;;;10.36;58.61;100410.31;104757;1258;63769;-45
2023/04/24 02:42:07;;;;;;;12.00;9.50;;;;;;;10.29;58.78;100407.63;104796;1259;66267;-46
2023/04/24 02:44:34;;;;;;;16.00;9.80;;;;;;;10.22;58.96;100406.95;104711;1259;59750;-45
2023/04/24 02:47:01;;;;;;;13.10;9.70;;;;;;;10.13;59.21;100407.34;104808;1257;61270;-45
2023/04/24 02:49:29;;;;;;;11.90;8.90;;;;;;;10.02;59.43;100405.55;108102;1259;66560;-46
2023/04/24 02:51:56;;;;;;;12.20;8.40;;;;;;;9.98;59.67;100405.66;108140;1259;62787;-46
2023/04/24 02:54:23;;;;;;;11.00;8.60;;;;;;;10.01;59.88;100405.09;107994;1257;76253;-46
2023/04/24 02:56:50;;;;;;;11.90;8.70;;;;;;;10.04;59.84;100407.67;108053;1259;57981;-45
2023/04/24 02:59:17;;;;;;;11.50;8.60;;;;;;;10.03;60.00;100408.77;108113;1259;57969;-45
2023/04/24 03:01:44;;;;;;;11.10;9.10;;;;;;;10.03;60.15;100407.02;108165;1257;66550;-46
2023/04/24 03:04:11;;;;;;;12.50;9.80;;;;;;;10.03;60.27;100404.52;108016;1262;63717;-45
2023/04/24 03:06:38;;;;;;;13.70;9.60;;;;;;;10.04;60.40;100401.85;108025;1258;67006;-45
2023/04/24 03:09:05;;;;;;;12.80;8.80;;;;;;;10.06;60.41;100404.89;108187;1262;59058;-45
2023/04/24 03:11:32;;;;;;;12.30;8.80;;;;;;;10.07;60.55;100407.83;108185;1258;58917;-45
2023/04/24 03:13:59;;;;;;;13.00;9.50;;;;;;;10.06;60.74;100403.29;108121;1257;66432;-46
2023/04/24 03:16:26;;;;;;;15.10;9.80;;;;;;;10.11;60.80;100400.99;108168;1257;62752;-45
2023/04/24 03:18:54;;;;;;;12.40;9.40;;;;;;;10.17;60.79;100397.34;108206;1260;64695;-45
2023/04/24 03:21:23;;;;;;;14.50;8.70;;;;;;;10.24;60.74;100397.86;108081;1259;59186;-45
2023/04/24 03:23:50;;;;;;;14.70;10.60;;;;;;;10.30;60.57;100398.81;108189;1257;58169;-45
2023/04/24 03:26:16;;;;;;;11.50;8.90;;;;;;;10.32;60.47;100396.39;106538;1257;67499;-46
2023/04/24 03:28:52;;;;;;;;;;;;;;;10.33;60.55;100399.45;104776;1259;64314;-45
2023/04/24 03:31:21;;;;;;;14.90;10.10;;;;;;;10.35;60.54;100399.65;104940;1264;65876;-45
2023/04/24 03:33:48;;;;;;;16.40;11.80;;;;;;;10.33;60.54;100405.60;104810;1259;59751;-45
2023/04/24 03:36:15;;;;;;;13.60;10.60;;;;;;;10.29;60.69;100407.52;104846;1257;59565;-45
2023/04/24 03:38:43;;;;;;;17.70;10.90;;;;;;;10.29;60.95;100406.27;108015;1257;66321;-45
2023/04/24 03:41:23;;;;;;;15.50;10.90;;;;;;;10.36;61.09;100407.30;108201;1257;64042;-46
2023/04/24 03:43:54;;;;;;;13.00;10.60;;;;;;;10.48;61.19;100411.47;108105;1259;66500;-46
2023/04/24 03:46:21;;;;;;;15.00;11.00;;;;;;;10.62;61.27;100414.89;108033;1257;59468;-46
2023/04/24 03:48:53;;;;;;;14.40;10.50;;;;;;;10.75;61.32;100417.60;107758;1257;59438;-46
2023/04/24 03:51:23;;;;;;;14.60;11.10;;;;;;;10.85;61.15;100422.94;105455;1257;66735;-45
2023/04/24 03:53:52;;;;;;;14.50;10.60;;;;;;;10.92;61.07;100425.00;108037;1257;63711;-46
2023/04/24 03:56:20;;;;;;;14.70;10.20;;;;;;;11.00;60.98;100425.44;108160;1259;67365;-46
2023/04/24 03:58:47;;;;;;;15.70;11.10;;;;;;;11.08;61.00;100423.84;105238;1257;62886;-46
2023/04/24 04:01:15;;;;;;;14.90;11.10;;;;;;;11.14;60.92;100422.66;104500;1264;60568;-46
2023/04/24 04:03:54;;;;;;;18.00;10.80;;;;;;;11.19;60.85;100424.94;106687;1258;67091;-46
2023/04/24 04:06:23;;;;;;;13.60;9.60;;;;;;;11.25;60.69;100428.80;103927;1262;64196;-45
2023/04/24 04:08:51;;;;;;;13.60;10.40;;;;;;;11.31;60.67;100427.77;104364;1262;67973;-46
2023/04/24 04:11:18;;;;;;;16.90;10.50;;;;;;;11.40;60.91;100425.64;104829;1262;60494;-45
2023/04/24 04:13:47;;;;;;;12.10;10.20;;;;;;;11.50;60.93;100425.54;104732;1263;61531;-46
2023/04/24 04:16:18;;;;;;;15.30;10.00;;;;;;;11.58;60.92;100427.45;104792;1263;66167;-47
2023/04/24 04:18:46;;;;;;;13.10;9.40;;;;;;;11.65;60.91;100430.23;104740;1258;63532;-47
2023/04/24 04:21:14;;;;;;;12.90;9.80;;;;;;;11.68;60.60;100433.44;105497;1259;66521;-45
2023/04/24 04:23:41;;;;;;;14.30;10.00;;;;;;;11.70;60.60;100439.27;108044;1264;60905;-48
2023/04/24 04:26:13;;;;;;;14.20;10.00;;;;;;;11.73;60.56;100439.04;108106;1259;59868;-46
2023/04/24 04:28:55;;;;;;;13.60;9.60;;;;;;;11.75;60.14;100436.74;108074;1257;69320;-46
2023/04/24 04:31:23;;;;;;;12.30;9.40;;;;;;;11.82;59.92;100435.10;108033;1257;64056;-46
2023/04/24 04:33:50;;;;;;;12.00;9.10;;;;;;;11.94;59.60;100433.98;107786;1263;66476;-46
2023/04/24 04:36:17;;;;;;;13.20;9.60;;;;;;;12.04;59.14;100434.89;104783;1262;61213;-46
2023/04/24 04:38:47;;;;;;;12.90;9.70;;;;;;;12.11;59.05;100432.70;104808;1263;60525;-45
2023/04/24 04:41:40;;;;;;;12.80;9.30;;;;;;;12.20;58.55;100433.87;104675;1264;67551;-46
2023/04/24 04:44:08;;;;;;;12.80;9.50;;;;;;;12.29;58.09;100437.65;104766;1258;63685;-46
2023/04/24 04:46:37;;;;;;;15.60;9.60;;;;;;;12.37;57.39;100434.48;104739;1259;66235;-45
2023/04/24 04:49:33;;;;;;;12.00;8.90;;;;;;;12.48;56.72;100432.02;104598;1257;60445;-46
2023/04/24 04:52:01;;;;;;;14.10;8.80;;;;;;;12.56;56.43;100434.68;104834;1260;59233;-47
2023/04/24 04:54:28;;;;;;;16.50;9.30;;;;;;;12.61;56.21;100434.89;107706;1263;66237;-45
2023/04/24 04:56:57;;;;;;;14.70;10.40;;;;;;;12.67;55.87;100431.91;108062;1259;64427;-47
2023/04/24 04:59:24;;;;;;;15.30;9.70;;;;;;;12.75;55.55;100433.86;107990;1259;66519;-46
2023/04/24 05:01:56;;;;;;;12.10;8.90;;;;;;;12.83;55.56;100431.71;108177;1261;59097;-46
2023/04/24 05:04:23;;;;;;;14.00;9.40;;;;;;;12.91;55.58;100433.17;108330;1257;58549;-46
2023/04/24 05:06:51;;;;;;;12.50;8.80;;;;;;;13.03;55.23;100430.89;108044;1257;66420;-46
2023/04/24 05:09:18;;;;;;;14.80;7.90;;;;;;;13.18;55.05;100436.70;108113;1258;72073;-47
2023/04/24 05:11:54;;;;;;;13.10;8.80;;;;;;;13.30;54.68;100433.66;108023;1257;67132;-46
2023/04/24 05:14:21;;;;;;;13.40;7.90;;;;;;;13.44;54.09;100434.96;108125;1263;58670;-46
2023/04/24 05:16:48;;;;;;;11.60;7.90;;;;;;;13.55;53.38;100434.45;108097;1262;58484;-46
2023/04/24 05:19:16;;;;;;;13.40;8.40;;;;;;;13.67;53.01;100428.10;107826;1260;68392;-46
2023/04/24 05:21:45;;;;;;;13.90;8.10;;;;;;;13.78;52.30;100430.23;104650;1257;64279;-45
2023/04/24 05:24:12;;;;;;;10.80;7.00;;;;;;;13.88;51.45;100430.31;108054;1257;68336;-46
2023/04/24 05:26:51;;;;;;;10.20;6.80;;;;;;;13.98;50.58;100429.27;108058;1257;59007;-46
2023/04/24 05:29:22;;;;;;;10.30;6.90;;;;;;;14.04;50.32;100424.09;108122;1257;58981;-47
2023/04/24 05:31:49;;;;;;;9.90;6.80;;;;;;;14.09;49.67;100421.20;105071;1262;67321;-46
2023/04/24 05:34:17;;;;;;;12.40;7.70;;;;;;;14.14;49.19;100425.69;108224;1258;63455;-46
2023/04/24 05:36:44;;;;;;;10.40;7.00;;;;;;;14.18;48.94;100425.08;108060;1258;65962;-45
2023/04/24 05:39:11;;;;;;;10.80;7.00;;;;;;;14.24;48.83;100425.91;108242;1257;59652;-46
2023/04/24 05:41:38;;;;;;;11.30;7.80;;;;;;;14.32;48.77;100424.33;108047;1258;58622;-45
2023/04/24 05:44:05;;;;;;;9.20;6.70;;;;;;;14.38;48.58;100418.61;108180;1257;67663;-45
2023/04/24 05:46:32;;;;;;;11.60;7.00;;;;;;;14.44;48.13;100416.27;108102;1259;64271;-45
2023/04/24 05:48:59;;;;;;;10.60;6.80;;;;;;;14.48;47.81;100417.61;108089;1258;64744;-45
2023/04/24 05:51:26;;;;;;;12.10;6.60;;;;;;;14.53;47.47;100416.14;106983;1258;61183;-45
2023/04/24 05:53:53;;;;;;;10.70;7.10;;;;;;;14.56;47.35;100410.84;107964;1257;58497;-45
2023/04/24 05:56:20;;;;;;;11.20;6.80;;;;;;;14.60;47.66;100412.51;108010;1263;68047;-46
2023/04/24 05:58:47;;;;;;;11.40;7.60;;;;;;;14.64;47.75;100411.41;108127;1262;64638;-46
2023/04/24 06:01:15;;;;;;;10.00;6.80;;;;;;;14.69;47.98;100415.13;108109;1259;69432;-45
2023/04/24 06:03:43;;;;;;;10.00;7.10;;;;;;;14.75;47.88;100411.72;105311;1264;60489;-45
2023/04/24 06:06:10;;;;;;;9.90;6.40;;;;;;;14.81;47.56;100411.88;104823;1261;60557;-43
2023/04/24 06:08:37;;;;;;;14.30;6.10;;;;;;;14.86;47.40;100414.04;107914;1257;69306;-46
2023/04/24 06:11:04;;;;;;;11.10;5.90;;;;;;;14.90;46.96;100414.70;108203;1257;63845;-46
2023/04/24 06:13:31;;;;;;;10.60;6.00;;;;;;;14.94;46.61;100409.36;108177;1257;65083;-45
2023/04/24 06:16:17;;;;;;;9.10;6.30;;;;;;;14.99;46.64;100407.05;108144;1259;58437;-45
2023/04/24 06:18:48;;;;;;;9.70;6.70;;;;;;;15.05;46.52;100405.63;108315;1256;58261;-45
2023/04/24 06:21:16;;;;;;;10.60;6.60;;;;;;;15.13;46.87;100403.64;106779;1259;78202;-44
2023/04/24 06:23:46;;;;;;;11.50;6.70;;;;;;;15.19;46.77;100405.98;105008;1256;65965;-44
2023/04/24 06:26:14;;;;;;;12.70;6.30;;;;;;;15.23;46.91;100407.73;105027;1259;67110;-45
2023/04/24 06:28:41;;;;;;;9.70;5.90;;;;;;;15.29;46.40;100408.41;106563;1255;60358;-46
2023/04/24 06:31:08;;;;;;;9.30;6.20;;;;;;;15.34;45.82;100402.73;108410;1253;65306;-44
2023/04/24 06:33:35;;;;;;;10.30;6.20;;;;;;;15.42;45.88;100401.95;108456;1253;68216;-44
2023/04/24 06:36:03;;;;;;;11.60;6.40;;;;;;;15.50;46.23;100405.80;108376;1253;64275;-44
2023/04/24 06:38:30;;;;;;;11.60;6.60;;;;;;;15.58;46.06;100405.63;108393;1255;73769;-45
2023/04/24 06:40:57;;;;;;;9.20;6.00;;;;;;;15.66;45.65;100408.39;108386;1256;59558;-45
2023/04/24 06:43:24;;;;;;;10.60;6.10;;;;;;;15.75;45.28;100408.95;108045;1253;60104;-45
2023/04/24 06:45:51;;;;;;;9.90;6.10;;;;;;;15.84;45.13;100405.06;105091;1253;66987;-44
2023/04/24 06:48:18;;;;;;;12.50;6.80;;;;;;;15.92;45.24;100409.13;105090;1253;63774;-44
2023/04/24 06:50:46;;;;;;;12.50;6.10;;;;;;;16.01;45.41;100402.58;104930;1253;66175;-44
2023/04/24 06:53:14;;;;;;;9.50;6.20;;;;;;;16.09;45.43;100408.03;108342;1253;59555;-45
2023/04/24 06:55:41;;;;;;;9.70;5.70;;;;;;;16.15;45.32;100409.27;107091;1257;60361;-44
2023/04/24 06:58:09;;;;;;;10.30;6.30;;;;;;;16.23;45.13;100411.52;104981;1253;66270;-45
2023/04/24 07:00:36;;;;;;;12.00;6.40;;;;;;;16.29;44.89;100411.70;108321;1258;63689;-46
2023/04/24 07:03:05;;;;;;;9.70;6.60;;;;;;;16.36;45.06;100411.16;107183;1253;66362;-45
2023/04/24 07:05:33;;;;;;;10.40;6.20;;;;;;;16.45;45.32;100411.14;105105;1258;61025;-46
2023/04/24 07:08:01;;;;;;;11.10;5.70;;;;;;;16.55;45.26;100409.88;105079;1259;60510;-45
2023/04/24 07:10:28;;;;;;;8.70;5.50;;;;;;;16.65;44.93;100409.80;105010;1253;67647;-45
2023/04/24 07:12:58;;;;;;;12.70;6.20;;;;;;;16.74;44.38;100410.06;104921;1259;66209;-49
2023/04/24 07:15:25;;;;;;;9.80;5.40;;;;;;;16.83;44.20;100411.22;108384;1253;66347;-45
2023/04/24 07:17:52;;;;;;;10.50;5.90;;;;;;;16.93;44.31;100408.07;108397;1254;59275;-44
2023/04/24 07:20:19;;;;;;;10.50;5.40;;;;;;;17.03;43.64;100409.50;106816;1258;60502;-45
2023/04/24 07:22:47;;;;;;;8.90;5.40;;;;;;;17.13;42.89;100406.66;108399;1253;67070;-46
2023/04/24 07:25:14;;;;;;;8.00;4.90;;;;;;;17.23;42.45;100408.27;108322;1253;64978;-46
2023/04/24 07:27:41;;;;;;;9.10;4.30;;;;;;;17.34;42.00;100408.34;108395;1253;66488;-45
2023/04/24 07:30:09;;;;;;;9.00;4.30;;;;;;;17.45;41.54;100410.14;108281;1253;58276;-45
2023/04/24 07:32:36;;;;;;;6.70;4.10;;;;;;;17.56;41.37;100402.04;108569;1253;58493;-47
2023/04/24 07:35:03;;;;;;;8.30;4.00;;;;;;;17.68;40.60;100401.63;107142;1259;66246;-46
2023/04/24 07:37:30;;;;;;;6.10;3.20;;;;;;;17.77;39.90;100404.46;105106;1259;64412;-46
2023/04/24 07:39:57;;;;;;;8.20;3.20;;;;;;;17.88;38.80;100401.88;105054;1259;65186;-45
2023/04/24 07:42:23;;;;;;;5.70;2.60;;;;;;;18.00;38.11;100403.39;107946;1253;60320;-46
2023/04/24 07:44:51;;;;;;;5.90;2.80;;;;;;;18.12;36.79;100399.91;108461;1253;61172;-46
2023/04/24 07:47:17;;;;;;;5.60;2.90;;;;;;;18.23;35.47;100399.25;108403;1256;67718;-46
2023/04/24 07:49:44;;;;;;;7.80;2.80;;;;;;;18.35;34.41;100399.69;108354;1259;64434;-46
2023/04/24 07:52:11;;;;;;;13.10;3.30;;;;;;;18.47;34.44;100400.51;106948;1253;66024;-46
2023/04/24 07:54:38;;;;;;;5.90;2.30;;;;;;;18.57;34.08;100395.98;104927;1253;60694;-46
2023/04/24 07:57:06;;;;;;;8.30;3.30;;;;;;;18.65;33.17;100398.27;105221;1253;60589;-45
2023/04/24 07:59:33;;;;;;;9.00;3.00;;;;;;;18.73;32.87;100400.37;108337;1254;67034;-46
2023/04/24 08:02:01;;;;;;;7.40;2.70;;;;;;;18.81;31.45;100396.17;108369;1253;62754;-46
2023/04/24 08:04:28;;;;;;;6.40;2.40;;;;;;;18.87;30.82;100399.23;108394;1253;65795;-46
2023/04/24 08:06:55;;;;;;;7.00;2.20;;;;;;;18.93;30.50;100396.83;108350;1254;60743;-46
2023/04/24 08:09:22;;;;;;;5.90;2.40;;;;;;;19.02;29.91;100393.84;108423;1253;59305;-45
2023/04/24 08:11:51;;;;;;;5.60;2.10;;;;;;;19.11;29.81;100394.28;108496;1253;66314;-47
2023/04/24 08:14:18;;;;;;;3.90;1.60;;;;;;;19.20;29.64;100396.80;108367;1253;63737;-46
2023/04/24 08:16:45;;;;;;;4.50;2.10;;;;;;;19.29;29.31;100397.58;108447;1256;66359;-46
2023/04/24 08:19:12;;;;;;;5.90;2.40;;;;;;;19.38;29.10;100397.73;108355;1255;58875;-45
2023/04/24 08:21:39;;;;;;;6.90;2.80;;;;;;;19.46;29.53;100395.86;108360;1257;59102;-45
2023/04/24 08:24:07;;;;;;;7.90;2.70;;;;;;;19.55;29.59;100391.67;108387;1259;67435;-47
2023/04/24 08:26:34;;;;;;;6.40;2.80;;;;;;;19.63;29.17;100385.77;108340;1253;63453;-48
2023/04/24 08:29:01;;;;;;;7.70;2.30;;;;;;;19.70;28.68;100384.59;108379;1253;66111;-46
2023/04/24 08:31:28;;;;;;;4.80;2.40;;;;;;;19.74;28.97;100381.76;107871;1255;60195;-45
2023/04/24 08:33:55;;;;;;;5.50;2.70;;;;;;;19.81;29.60;100380.96;105042;1260;60420;-45
2023/04/24 08:36:22;;;;;;;10.10;2.40;;;;;;;19.90;29.62;100379.01;105031;1253;68061;-46
2023/04/24 08:38:58;;;;;;;6.00;2.50;;;;;;;20.00;28.21;100373.44;105136;1259;66028;-45
2023/04/24 08:41:26;;;;;;;4.70;2.40;;;;;;;20.07;28.09;100374.30;105100;1253;65126;-45
2023/04/24 08:43:54;;;;;;;6.10;2.20;;;;;;;20.13;28.64;100373.42;104664;1253;60398;-45
2023/04/24 08:46:21;;;;;;;6.20;2.50;;;;;;;20.21;28.95;100371.52;104400;1253;61331;-46
2023/04/24 08:48:48;;;;;;;5.40;2.20;;;;;;;20.25;29.29;100367.96;105012;1253;67230;-46
2023/04/24 08:51:15;;;;;;;4.10;1.90;;;;;;;20.37;28.83;100369.75;105024;1259;62569;-46
2023/04/24 08:53:42;;;;;;;8.00;2.30;;;;;;;20.51;28.79;100362.87;104947;1262;66564;-47
2023/04/24 08:56:09;;;;;;;6.40;2.50;;;;;;;20.65;28.79;100361.83;104932;1253;62514;-46
2023/04/24 08:58:36;;;;;;;5.30;2.40;;;;;;;20.79;28.57;100356.79;105075;1259;60498;-46
2023/04/24 09:01:03;;;;;;;6.40;2.90;;;;;;;20.93;28.63;100355.80;104903;1258;67821;-46
2023/04/24 09:03:30;;;;;;;5.20;2.40;;;;;;;21.08;27.89;100355.00;104833;1261;63213;-46
2023/04/24 09:05:57;;;;;;;7.00;2.90;;;;;;;21.17;26.97;100348.66;105130;1259;74685;-45
2023/04/24 09:08:25;;;;;;;5.20;2.30;;;;;;;21.23;27.00;100348.13;104913;1255;60433;-45
2023/04/24 09:10:52;;;;;;;5.70;2.20;;;;;;;21.29;27.21;100346.15;105059;1259;60362;-45
2023/04/24 09:13:19;;;;;;;6.00;2.50;;;;;;;21.35;27.36;100347.48;104933;1262;67552;-45
2023/04/24 09:15:46;;;;;;;4.90;2.60;;;;;;;21.44;27.33;100342.70;104913;1259;63758;-45
2023/04/24 09:18:13;;;;;;;5.50;2.40;;;;;;;21.52;27.57;100340.27;105007;1260;66246;-45
2023/04/24 09:21:00;;;;;;;4.90;2.20;;;;;;;21.60;26.77;100332.91;105096;1256;61332;-45
2023/04/24 09:23:28;;;;;;;5.00;2.20;;;;;;;21.69;26.43;100326.73;105035;1256;60477;-46
2023/04/24 09:25:56;;;;;;;4.80;2.00;;;;;;;21.80;26.17;100323.48;105015;1253;67416;-47
2023/04/24 09:28:31;;;;;;;8.70;2.60;;;;;;;21.87;26.42;100323.04;108529;1253;64001;-48
2023/04/24 09:31:17;;;;;;;5.30;2.60;;;;;;;21.97;26.25;100316.61;108388;1256;67418;-45
2023/04/24 09:33:58;;;;;;;5.70;2.60;;;;;;;22.09;26.23;100315.63;108358;1253;58236;-46
2023/04/24 09:36:36;;;;;;;7.10;1.70;;;;;;;22.18;26.28;100318.65;106504;1259;58921;-46
2023/04/24 09:39:05;;;;;;;6.40;2.10;;;;;;;22.24;26.41;100314.86;108368;1254;67606;-47
2023/04/24 09:41:32;;;;;;;9.80;2.20;;;;;;;22.25;26.48;100313.98;108354;1257;63693;-46
2023/04/24 09:44:15;;;;;;;4.60;2.30;;;;;;;22.27;26.68;100316.11;108323;1253;66760;-46
2023/04/24 09:46:44;;;;;;;4.40;2.00;;;;;;;22.37;26.68;100313.94;108346;1253;59294;-46
2023/04/24 09:49:16;;;;;;;5.70;2.30;;;;;;;22.47;26.87;100309.92;108370;1253;58378;-46
2023/04/24 09:51:42;;;;;;;5.20;2.40;;;;;;;22.54;27.29;100314.31;108477;1253;67690;-45
2023/04/24 09:54:17;;;;;;;4.60;2.20;;;;;;;22.59;27.23;100313.04;106870;1259;63704;-46
2023/04/24 09:56:47;;;;;;;4.60;2.30;;;;;;;22.60;27.10;100305.82;108266;1253;66662;-45
2023/04/24 09:59:15;;;;;;;7.50;2.10;;;;;;;22.60;27.61;100303.64;108404;1259;60201;-46
2023/04/24 10:01:45;;;;;;;4.90;1.90;;;;;;;22.59;27.77;100300.95;108359;1253;59340;-47
2023/04/24 10:04:20;;;;;;;5.00;2.10;;;;;;;22.60;27.99;100301.90;108284;1253;67669;-46
2023/04/24 10:06:48;;;;;;;5.10;2.40;;;;;;;22.60;28.53;100298.84;108349;1258;62979;-46
2023/04/24 10:09:16;;;;;;;6.20;2.30;;;;;;;22.55;28.78;100296.16;108372;1253;65978;-47
2023/04/24 10:11:45;;;;;;;4.60;2.10;;;;;;;22.47;28.73;100292.55;108430;1253;59779;-46
2023/04/24 10:14:12;;;;;;;5.70;1.90;;;;;;;22.40;28.64;100289.13;108377;1253;59177;-46
2023/04/24 10:16:40;;;;;;;5.00;2.10;;;;;;;22.34;28.65;100285.52;108418;1256;66453;-47
2023/04/24 10:19:07;;;;;;;6.60;2.50;;;;;;;22.26;28.54;100284.73;105748;1259;63498;-47
2023/04/24 10:21:34;;;;;;;5.20;2.30;;;;;;;22.21;28.80;100281.48;108366;1255;66226;-47
2023/04/24 10:24:03;;;;;;;6.60;2.20;;;;;;;22.20;28.99;100283.14;108404;1253;58274;-47
2023/04/24 10:26:31;;;;;;;5.50;2.20;;;;;;;22.20;28.87;100276.63;107826;1253;59471;-46
2023/04/24 10:28:58;;;;;;;8.50;2.30;;;;;;;22.22;29.07;100272.67;103630;1262;66740;-47
2023/04/24 10:31:25;;;;;;;6.20;2.40;;;;;;;22.28;29.18;100268.27;103649;1253;63883;-47
2023/04/24 10:33:52;;;;;;;7.60;2.80;;;;;;;22.30;29.15;100266.45;106509;1254;67277;-52
2023/04/24 10:36:19;;;;;;;6.40;3.00;;;;;;;22.29;28.96;100268.96;108305;1255;59593;-48
2023/04/24 10:38:46;;;;;;;5.00;2.30;;;;;;;22.26;28.45;100268.98;108220;1253;60138;-45
2023/04/24 10:41:19;;;;;;;4.80;2.40;;;;;;;22.23;28.54;100268.84;108382;1256;66253;-46
2023/04/24 10:43:48;;;;;;;7.60;2.80;;;;;;;22.22;28.64;100267.89;108343;1254;62808;-46
2023/04/24 10:46:21;;;;;;;7.90;2.70;;;;;;;22.22;29.00;100268.79;108335;1259;65819;-45
2023/04/24 10:48:55;;;;;;;5.30;2.70;;;;;;;22.23;28.97;100270.77;108304;1258;60541;-46
2023/04/24 10:51:22;;;;;;;5.10;2.40;;;;;;;22.31;29.36;100267.69;108384;1255;64513;-46
2023/04/24 10:53:50;;;;;;;5.80;2.50;;;;;;;22.41;29.03;100270.65;108418;1253;66253;-47
2023/04/24 10:56:17;;;;;;;6.10;2.40;;;;;;;22.51;28.52;100269.14;108365;1253;63768;-47
2023/04/24 10:58:49;;;;;;;5.20;2.10;;;;;;;22.56;27.82;100266.95;108325;1254;65065;-46
2023/04/24 11:01:32;;;;;;;6.20;2.30;;;;;;;22.55;27.40;100269.10;108282;1254;60477;-46
2023/04/24 11:04:02;;;;;;;5.60;2.30;;;;;;;22.56;27.54;100267.95;108325;1259;60176;-46
2023/04/24 11:06:34;;;;;;;5.20;2.20;;;;;;;22.64;27.78;100263.08;108488;1253;66961;-46
2023/04/24 11:09:12;;;;;;;4.90;2.30;;;;;;;22.74;27.36;100258.95;108346;1254;65593;-46
2023/04/24 11:11:44;;;;;;;5.00;2.50;;;;;;;22.80;27.52;100256.11;108377;1255;66924;-47
2023/04/24 11:14:14;;;;;;;4.30;2.20;;;;;;;22.84;27.24;100252.98;108370;1254;59384;-46
2023/04/24 11:16:51;;;;;;;4.80;2.00;;;;;;;22.82;26.84;100252.15;108345;1256;59485;-46
2023/04/24 11:19:25;;;;;;;5.50;2.00;;;;;;;22.79;27.27;100254.79;108333;1253;67352;-46